createdAt,value
2022-12-06T00:01:24.831Z,91.90
2022-12-06T00:03:56.148Z,91.90
2022-12-06T00:06:25.383Z,91.90
2022-12-06T00:08:52.828Z,92.00
2022-12-06T00:11:26.013Z,91.90
2022-12-06T00:13:55.499Z,91.90
2022-12-06T00:16:23.247Z,91.90
2022-12-06T00:18:50.245Z,91.90
2022-12-06T00:21:22.890Z,91.90
2022-12-06T00:23:52.829Z,92.00
2022-12-06T00:26:21.033Z,92.00
2022-12-06T00:28:48.677Z,92.00
2022-12-06T00:31:16.655Z,92.00
2022-12-06T00:33:43.715Z,92.00
2022-12-06T00:36:17.853Z,92.10
2022-12-06T00:38:45.410Z,92.10
2022-12-06T00:41:14.982Z,92.10
2022-12-06T00:43:42.321Z,92.10
2022-12-06T00:46:16.441Z,92.00
2022-12-06T00:48:44.952Z,92.00
2022-12-06T00:51:12.880Z,92.00
2022-12-06T00:53:40.219Z,92.00
2022-12-06T00:56:07.649Z,92.00
2022-12-06T00:58:34.837Z,92.00
2022-12-06T01:01:12.022Z,92.00
2022-12-06T01:03:40.438Z,92.00
2022-12-06T01:06:10.642Z,91.90
2022-12-06T01:08:39.327Z,91.90
2022-12-06T01:11:07.896Z,91.90
2022-12-06T01:13:35.702Z,92.00
2022-12-06T01:16:11.490Z,92.40
2022-12-06T01:18:39.086Z,92.00
2022-12-06T01:21:13.960Z,92.00
2022-12-06T01:23:41.176Z,92.00
2022-12-06T01:26:14.251Z,92.10
2022-12-06T01:28:40.967Z,92.10
2022-12-06T01:31:08.169Z,92.00
2022-12-06T01:33:35.506Z,92.00
2022-12-06T01:36:02.387Z,92.00
2022-12-06T01:38:29.504Z,92.00
2022-12-06T01:40:56.593Z,92.00
2022-12-06T01:43:36.537Z,91.90
2022-12-06T01:46:12.983Z,92.00
2022-12-06T01:48:41.666Z,92.00
2022-12-06T01:51:10.553Z,92.00
2022-12-06T01:53:38.807Z,92.00
2022-12-06T01:56:07.309Z,92.00
2022-12-06T01:58:41.392Z,92.00
2022-12-06T02:01:09.871Z,92.00
2022-12-06T02:03:37.425Z,92.00
2022-12-06T02:06:07.147Z,92.00
2022-12-06T02:08:35.674Z,92.00
2022-12-06T02:11:03.748Z,92.00
2022-12-06T02:13:32.253Z,92.00
2022-12-06T02:16:17.374Z,92.00
2022-12-06T02:19:10.577Z,92.00
2022-12-06T02:22:09.821Z,92.00
2022-12-06T02:24:42.577Z,92.00
2022-12-06T02:27:09.334Z,92.00
2022-12-06T02:29:51.115Z,92.00
2022-12-06T02:32:30.901Z,92.00
2022-12-06T02:35:11.324Z,92.00
2022-12-06T02:37:52.676Z,92.00
2022-12-06T02:40:25.573Z,92.00
2022-12-06T02:43:11.106Z,92.00
2022-12-06T02:45:42.018Z,92.00
2022-12-06T02:48:10.549Z,92.00
2022-12-06T02:50:46.702Z,92.00
2022-12-06T02:53:17.668Z,92.00
2022-12-06T02:55:45.648Z,92.00
2022-12-06T02:58:12.483Z,92.00
2022-12-06T03:00:49.948Z,92.00
2022-12-06T03:03:36.077Z,92.40
2022-12-06T03:06:03.065Z,92.00
2022-12-06T03:08:49.887Z,92.10
2022-12-06T03:11:18.122Z,92.10
2022-12-06T03:14:03.959Z,92.10
2022-12-06T03:17:12.821Z,92.10
2022-12-06T03:19:41.331Z,92.10
2022-12-06T03:22:50.166Z,92.10
2022-12-06T03:25:18.001Z,92.10
2022-12-06T03:27:46.230Z,92.10
2022-12-06T03:30:14.801Z,92.10
2022-12-06T03:32:46.429Z,92.20
2022-12-06T03:35:17.351Z,92.10
2022-12-06T03:37:49.865Z,92.10
2022-12-06T03:40:32.398Z,92.10
2022-12-06T03:43:00.115Z,92.10
2022-12-06T03:45:52.486Z,92.10
2022-12-06T03:48:29.511Z,92.10
2022-12-06T03:51:04.587Z,92.10
2022-12-06T03:53:32.069Z,92.10
2022-12-06T03:55:59.669Z,92.10
2022-12-06T03:58:26.476Z,92.10
2022-12-06T04:00:53.389Z,92.10
2022-12-06T04:03:20.393Z,92.10
2022-12-06T04:05:47.287Z,92.10
2022-12-06T04:08:14.261Z,92.10
2022-12-06T04:10:40.973Z,92.10
2022-12-06T04:13:08.864Z,92.10
2022-12-06T04:15:37.226Z,92.10
2022-12-06T04:18:10.830Z,92.10
2022-12-06T04:21:18.946Z,92.20
2022-12-06T04:23:48.596Z,92.20
2022-12-06T04:26:18.878Z,92.20
2022-12-06T04:29:04.793Z,92.20
2022-12-06T04:31:50.665Z,92.20
2022-12-06T04:34:36.486Z,92.20
2022-12-06T04:37:22.430Z,92.20
2022-12-06T04:39:49.483Z,92.50
2022-12-06T04:42:35.435Z,92.10
2022-12-06T04:45:03.109Z,92.10
2022-12-06T04:47:30.023Z,92.10
2022-12-06T04:49:57.100Z,92.10
2022-12-06T04:52:24.129Z,92.20
2022-12-06T04:54:50.982Z,92.10
2022-12-06T04:57:18.048Z,92.20
2022-12-06T04:59:46.203Z,92.10
2022-12-06T05:02:15.213Z,92.10
2022-12-06T05:04:42.295Z,92.20
2022-12-06T05:07:09.725Z,92.10
2022-12-06T05:09:36.544Z,92.10
2022-12-06T05:12:03.683Z,92.10
2022-12-06T05:14:30.542Z,92.50
2022-12-06T05:16:57.392Z,92.10
2022-12-06T05:19:24.516Z,92.10
2022-12-06T05:21:51.482Z,92.10
2022-12-06T05:24:18.468Z,92.10
2022-12-06T05:26:45.298Z,92.50
2022-12-06T05:29:12.337Z,92.10
2022-12-06T05:31:39.175Z,92.10
2022-12-06T05:34:05.977Z,92.10
2022-12-06T05:36:33.563Z,92.10
2022-12-06T05:39:00.559Z,92.10
2022-12-06T05:41:27.822Z,92.10
2022-12-06T05:43:54.752Z,92.10
2022-12-06T05:46:21.833Z,92.20
2022-12-06T05:48:48.714Z,92.20
2022-12-06T05:51:15.675Z,92.20
2022-12-06T05:53:42.544Z,92.20
2022-12-06T05:56:12.112Z,92.20
2022-12-06T05:58:39.680Z,92.20
2022-12-06T06:01:08.373Z,92.20
2022-12-06T06:03:35.912Z,92.20
2022-12-06T06:06:02.945Z,92.20
2022-12-06T06:08:30.523Z,92.20
2022-12-06T06:10:57.960Z,92.20
2022-12-06T06:13:24.971Z,92.20
2022-12-06T06:15:52.383Z,92.30
2022-12-06T06:18:19.713Z,92.30
2022-12-06T06:21:00.173Z,92.30
2022-12-06T06:23:28.399Z,92.60
2022-12-06T06:25:55.560Z,92.20
2022-12-06T06:28:22.986Z,92.20
2022-12-06T06:30:50.308Z,92.20
2022-12-06T06:33:17.801Z,92.20
2022-12-06T06:35:44.617Z,92.20
2022-12-06T06:38:12.826Z,92.20
2022-12-06T06:40:39.675Z,92.20
2022-12-06T06:43:18.687Z,92.20
2022-12-06T06:45:57.164Z,92.20
2022-12-06T06:48:25.740Z,92.30
2022-12-06T06:50:57.318Z,92.30
2022-12-06T06:53:26.764Z,92.20
2022-12-06T06:55:54.179Z,92.20
2022-12-06T06:58:21.168Z,92.20
2022-12-06T07:00:53.723Z,92.20
2022-12-06T07:03:21.007Z,92.20
2022-12-06T07:05:52.738Z,92.30
2022-12-06T07:08:19.800Z,92.30
2022-12-06T07:10:48.722Z,92.30
2022-12-06T07:13:16.879Z,92.30
2022-12-06T07:15:43.717Z,92.30
2022-12-06T07:18:10.733Z,92.30
2022-12-06T07:20:37.431Z,92.30
2022-12-06T07:23:05.019Z,92.30
2022-12-06T07:25:34.524Z,92.30
2022-12-06T07:28:01.641Z,92.30
2022-12-06T07:30:28.698Z,92.30
2022-12-06T07:32:55.668Z,92.30
2022-12-06T07:35:23.212Z,92.30
2022-12-06T07:37:50.281Z,92.30
2022-12-06T07:40:19.271Z,92.30
2022-12-06T07:43:08.901Z,92.30
2022-12-06T07:45:36.653Z,92.30
2022-12-06T07:48:04.650Z,92.30
2022-12-06T07:50:33.228Z,92.30
2022-12-06T07:53:00.509Z,92.40
2022-12-06T07:55:27.471Z,92.40
2022-12-06T07:57:54.303Z,92.40
2022-12-06T08:00:21.502Z,92.40
2022-12-06T08:02:48.301Z,92.40
2022-12-06T08:05:15.330Z,92.40
2022-12-06T08:07:42.277Z,92.40
2022-12-06T08:10:09.334Z,92.40
2022-12-06T08:12:36.576Z,92.40
2022-12-06T08:15:03.599Z,92.40
2022-12-06T08:17:30.463Z,92.40
2022-12-06T08:19:58.038Z,92.40
2022-12-06T08:22:25.247Z,92.40
2022-12-06T08:24:52.105Z,92.40
2022-12-06T08:27:18.884Z,92.40
2022-12-06T08:29:45.727Z,92.40
2022-12-06T08:32:12.565Z,92.40
2022-12-06T08:34:39.501Z,92.40
2022-12-06T08:37:06.270Z,92.40
2022-12-06T08:39:33.469Z,92.40
2022-12-06T08:42:02.308Z,92.40
2022-12-06T08:44:31.177Z,92.40
2022-12-06T08:46:59.931Z,92.40
2022-12-06T08:49:27.885Z,92.40
2022-12-06T08:51:54.901Z,92.40
2022-12-06T08:54:24.142Z,92.40
2022-12-06T08:56:51.868Z,92.50
2022-12-06T08:59:19.570Z,92.50
2022-12-06T09:01:47.075Z,92.50
2022-12-06T09:04:14.801Z,92.50
2022-12-06T09:06:42.596Z,92.60
2022-12-06T09:09:10.381Z,92.60
2022-12-06T09:11:38.253Z,92.60
2022-12-06T09:14:05.746Z,93.00
2022-12-06T09:16:32.540Z,92.60
2022-12-06T09:18:59.385Z,92.60
2022-12-06T09:21:30.325Z,92.60
2022-12-06T09:23:58.427Z,92.60
2022-12-06T09:26:26.381Z,92.70
2022-12-06T09:28:55.038Z,92.70
2022-12-06T09:31:22.002Z,92.70
2022-12-06T09:33:49.424Z,92.60
2022-12-06T09:36:28.219Z,92.60
2022-12-06T09:39:07.511Z,92.70
2022-12-06T09:41:59.150Z,92.70
2022-12-06T09:44:47.453Z,92.60
2022-12-06T09:47:35.866Z,92.60
2022-12-06T09:50:25.871Z,92.60
2022-12-06T09:52:55.423Z,92.60
2022-12-06T09:55:40.677Z,92.60
2022-12-06T09:58:41.774Z,92.60
2022-12-06T10:01:30.119Z,92.70
2022-12-06T10:04:39.379Z,92.70
2022-12-06T10:07:41.791Z,92.70
2022-12-06T10:10:29.374Z,92.70
2022-12-06T10:13:29.939Z,92.70
2022-12-06T10:16:05.052Z,92.70
2022-12-06T10:19:17.273Z,92.70
2022-12-06T10:22:13.463Z,92.70
2022-12-06T10:25:13.196Z,92.70
2022-12-06T10:27:50.871Z,92.70
2022-12-06T10:30:19.413Z,92.70
2022-12-06T10:33:05.548Z,92.70
2022-12-06T10:35:48.991Z,92.70
2022-12-06T10:38:23.038Z,92.70
2022-12-06T10:41:09.200Z,92.80
2022-12-06T10:43:54.449Z,92.80
2022-12-06T10:46:56.556Z,92.80
2022-12-06T10:49:40.885Z,92.80
2022-12-06T10:52:22.700Z,92.80
2022-12-06T10:55:10.775Z,92.80
2022-12-06T10:57:43.775Z,92.90
2022-12-06T11:00:17.484Z,92.90
2022-12-06T11:02:58.889Z,92.90
2022-12-06T11:05:56.090Z,92.90
2022-12-06T11:08:30.435Z,92.90
2022-12-06T11:10:59.360Z,92.80
2022-12-06T11:13:50.968Z,92.90
2022-12-06T11:16:22.664Z,92.90
2022-12-06T11:18:51.519Z,92.90
2022-12-06T11:21:37.204Z,93.00
2022-12-06T11:24:21.526Z,92.90
2022-12-06T11:27:04.587Z,93.00
2022-12-06T11:29:31.629Z,92.90
2022-12-06T11:32:08.155Z,93.00
2022-12-06T11:34:56.869Z,92.90
2022-12-06T11:37:27.247Z,92.90
2022-12-06T11:40:01.612Z,92.90
2022-12-06T11:42:28.990Z,92.90
2022-12-06T11:45:10.584Z,92.90
2022-12-06T11:47:37.562Z,92.90
2022-12-06T11:50:16.809Z,92.90
2022-12-06T11:52:49.035Z,93.00
2022-12-06T11:55:23.122Z,93.00
2022-12-06T11:58:30.505Z,93.00
2022-12-06T12:01:03.774Z,92.90
2022-12-06T12:03:37.113Z,93.00
2022-12-06T12:06:30.743Z,93.00
2022-12-06T12:09:06.239Z,92.90
2022-12-06T12:11:37.296Z,92.90
2022-12-06T12:14:17.986Z,92.90
2022-12-06T12:16:50.327Z,92.90
2022-12-06T12:19:43.518Z,93.00
2022-12-06T12:22:28.093Z,93.00
2022-12-06T12:27:50.679Z,93.00
2022-12-06T12:30:36.930Z,93.00
2022-12-06T12:33:07.401Z,93.00
2022-12-06T12:35:39.404Z,93.00
2022-12-06T12:38:30.576Z,93.00
2022-12-06T12:41:01.554Z,93.00
2022-12-06T12:43:33.960Z,93.00
2022-12-06T12:46:03.660Z,93.00
2022-12-06T12:48:30.807Z,93.00
2022-12-06T12:51:00.778Z,92.90
2022-12-06T12:53:41.115Z,92.90
2022-12-06T12:56:14.224Z,92.90
2022-12-06T12:58:42.734Z,92.90
2022-12-06T13:01:41.871Z,92.90
2022-12-06T13:04:18.938Z,92.90
2022-12-06T13:06:51.207Z,92.90
2022-12-06T13:09:24.256Z,92.90
2022-12-06T13:12:05.875Z,92.90
2022-12-06T13:14:36.153Z,92.90
2022-12-06T13:17:08.250Z,92.90
2022-12-06T13:19:41.927Z,92.90
2022-12-06T13:22:20.179Z,92.90
2022-12-06T13:25:00.189Z,92.80
2022-12-06T13:27:31.147Z,92.80
2022-12-06T13:30:04.273Z,92.80
2022-12-06T13:32:39.618Z,92.80
2022-12-06T13:35:19.628Z,92.80
2022-12-06T13:37:59.125Z,92.80
2022-12-06T13:40:46.731Z,92.80
2022-12-06T13:43:25.860Z,92.80
2022-12-06T13:46:09.226Z,92.80
2022-12-06T13:48:55.271Z,92.80
2022-12-06T13:51:32.427Z,92.80
2022-12-06T13:54:05.449Z,92.80
2022-12-06T13:56:35.491Z,92.80
2022-12-06T13:59:12.930Z,92.80
2022-12-06T14:01:48.941Z,93.20
2022-12-06T14:09:55.826Z,92.80
2022-12-06T14:12:28.357Z,92.80
2022-12-06T14:15:00.889Z,92.70
2022-12-06T14:18:02.180Z,92.70
2022-12-06T14:20:28.992Z,92.70
2022-12-06T14:22:56.793Z,92.60
2022-12-06T14:25:25.347Z,92.50
2022-12-06T14:28:02.950Z,92.50
2022-12-06T14:30:29.971Z,92.50
2022-12-06T14:32:58.161Z,92.60
2022-12-06T14:35:29.623Z,92.60
2022-12-06T14:38:02.105Z,92.60
2022-12-06T14:40:59.099Z,92.50
2022-12-06T14:43:29.138Z,92.50
2022-12-06T14:45:58.914Z,92.50
2022-12-06T14:48:26.273Z,92.50
2022-12-06T14:51:03.383Z,92.50
2022-12-06T14:53:31.394Z,92.50
2022-12-06T14:56:00.949Z,92.50
2022-12-06T14:58:42.719Z,92.50
2022-12-06T15:01:19.129Z,92.50
2022-12-06T15:04:05.528Z,92.50
2022-12-06T15:06:34.827Z,92.50
2022-12-06T15:09:01.538Z,92.50
2022-12-06T15:11:55.153Z,92.50
2022-12-06T15:14:26.475Z,92.40
2022-12-06T15:17:13.685Z,92.40
2022-12-06T15:19:53.782Z,92.50
2022-12-06T15:22:25.640Z,92.40
2022-12-06T15:24:55.277Z,92.40
2022-12-06T15:27:23.321Z,92.50
2022-12-06T15:29:50.817Z,92.50
2022-12-06T15:32:19.927Z,92.50
2022-12-06T15:34:47.043Z,92.40
2022-12-06T15:37:38.208Z,92.40
2022-12-06T15:40:04.398Z,92.40
2022-12-06T15:42:31.384Z,92.40
2022-12-06T15:44:58.123Z,92.40
2022-12-06T15:47:24.977Z,92.40
2022-12-06T15:49:53.159Z,92.40
2022-12-06T15:52:24.925Z,92.40
2022-12-06T15:54:52.182Z,92.40
2022-12-06T15:57:19.039Z,92.80
2022-12-06T15:59:45.958Z,92.40
2022-12-06T16:02:17.822Z,92.40
2022-12-06T16:04:45.669Z,92.40
2022-12-06T16:07:18.325Z,92.80
2022-12-06T16:09:45.314Z,92.30
2022-12-06T16:12:12.264Z,92.40
2022-12-06T16:14:39.245Z,92.40
2022-12-06T16:17:06.274Z,92.30
2022-12-06T16:19:51.467Z,92.40
2022-12-06T16:22:45.821Z,92.30
2022-12-06T16:25:12.670Z,92.40
2022-12-06T16:27:39.555Z,92.40
2022-12-06T16:30:07.067Z,92.40
2022-12-06T16:32:33.989Z,92.40
2022-12-06T16:35:01.174Z,92.30
2022-12-06T16:37:28.212Z,92.30
2022-12-06T16:39:55.222Z,92.30
2022-12-06T16:42:22.178Z,92.30
2022-12-06T16:44:51.931Z,92.30
2022-12-06T16:49:47.777Z,92.30
2022-12-06T16:52:15.589Z,92.20
2022-12-06T16:54:42.861Z,92.20
2022-12-06T16:57:11.504Z,92.20
2022-12-06T16:59:38.404Z,92.20
2022-12-06T17:02:27.782Z,92.20
2022-12-06T17:04:55.933Z,92.30
2022-12-06T17:07:22.860Z,92.30
2022-12-06T17:09:49.697Z,92.30
2022-12-06T17:12:16.798Z,92.30
2022-12-06T17:14:43.643Z,92.30
2022-12-06T17:17:18.281Z,92.30
2022-12-06T17:19:45.522Z,92.30
2022-12-06T17:22:16.216Z,92.30
2022-12-06T17:24:43.171Z,92.30
2022-12-06T17:27:10.179Z,92.40
2022-12-06T17:29:37.766Z,92.30
2022-12-06T17:32:04.987Z,92.30
2022-12-06T17:34:31.894Z,92.30
2022-12-06T17:37:02.389Z,92.30
2022-12-06T17:39:29.225Z,92.30
2022-12-06T17:42:14.567Z,92.30
2022-12-06T17:44:41.563Z,92.30
2022-12-06T17:47:08.396Z,92.40
2022-12-06T17:49:36.196Z,92.40
2022-12-06T17:52:02.918Z,92.40
2022-12-06T17:54:29.678Z,92.40
2022-12-06T17:56:56.718Z,92.40
2022-12-06T17:59:26.802Z,92.40
2022-12-06T18:04:41.852Z,92.40
2022-12-06T18:07:08.826Z,92.40
2022-12-06T18:09:35.906Z,92.40
2022-12-06T18:12:02.899Z,92.40
2022-12-06T18:14:29.864Z,92.40
2022-12-06T18:16:56.900Z,92.40
2022-12-06T18:19:25.223Z,92.40
2022-12-06T18:21:53.030Z,92.40
2022-12-06T18:24:23.304Z,92.50
2022-12-06T18:26:52.400Z,92.40
2022-12-06T18:29:22.685Z,92.40
2022-12-06T18:31:50.437Z,92.40
2022-12-06T18:34:17.576Z,92.40
2022-12-06T18:36:44.686Z,92.40
2022-12-06T18:39:16.084Z,92.60
2022-12-06T18:41:44.313Z,92.60
2022-12-06T18:44:12.474Z,92.60
2022-12-06T18:46:42.510Z,92.60
2022-12-06T18:49:12.072Z,92.60
2022-12-06T18:51:39.285Z,92.50
2022-12-06T18:54:08.166Z,92.50
2022-12-06T18:56:36.450Z,92.50
2022-12-06T18:59:07.116Z,92.50
2022-12-06T19:01:37.022Z,92.50
2022-12-06T19:04:06.746Z,92.50
2022-12-06T19:06:38.750Z,92.40
2022-12-06T19:09:11.742Z,92.50
2022-12-06T19:11:39.841Z,92.50
2022-12-06T19:14:08.169Z,92.50
2022-12-06T19:16:38.857Z,92.50
2022-12-06T19:19:15.518Z,92.50
2022-12-06T19:21:43.922Z,92.50
2022-12-06T19:24:21.367Z,92.50
2022-12-06T19:26:50.681Z,92.60
2022-12-06T19:29:18.576Z,92.60
2022-12-06T19:31:46.686Z,92.60
2022-12-06T19:34:16.417Z,92.60
2022-12-06T19:36:44.770Z,92.60
2022-12-06T19:39:14.014Z,92.60
2022-12-06T19:41:59.793Z,92.60
2022-12-06T19:44:27.233Z,92.60
2022-12-06T19:46:54.113Z,92.60
2022-12-06T19:49:23.263Z,92.60
2022-12-06T19:51:51.259Z,92.60
2022-12-06T19:54:27.309Z,92.60
2022-12-06T19:57:03.426Z,92.60
2022-12-06T19:59:56.668Z,92.60
2022-12-06T20:19:54.377Z,92.70
2022-12-06T20:22:22.643Z,92.80
2022-12-06T20:24:49.519Z,92.70
2022-12-06T20:27:16.723Z,92.80
2022-12-06T20:29:43.648Z,92.80
2022-12-06T20:32:11.336Z,92.70
2022-12-06T20:34:38.273Z,92.80
2022-12-06T20:37:06.037Z,92.70
2022-12-06T20:39:35.125Z,92.80
2022-12-06T20:42:03.329Z,92.80
2022-12-06T20:44:30.368Z,92.80
2022-12-06T20:46:57.589Z,92.80
2022-12-06T20:49:24.668Z,92.80
2022-12-06T20:51:53.512Z,92.80
2022-12-06T20:54:21.323Z,92.80
2022-12-06T20:56:51.340Z,92.80
2022-12-06T20:59:18.402Z,92.80
2022-12-06T21:01:45.221Z,92.80
2022-12-06T21:04:13.837Z,92.80
2022-12-06T21:06:41.001Z,92.80
2022-12-06T21:09:07.802Z,92.80
2022-12-06T21:11:34.798Z,92.80
2022-12-06T21:14:01.519Z,92.80
2022-12-06T21:16:30.603Z,92.80
2022-12-06T21:19:02.850Z,92.80
2022-12-06T21:21:32.644Z,92.80
2022-12-06T21:24:00.984Z,92.80
2022-12-06T21:26:29.366Z,92.80
2022-12-06T21:28:57.082Z,92.80
2022-12-06T21:31:32.510Z,92.80
2022-12-06T21:33:59.520Z,92.80
2022-12-06T21:36:26.280Z,92.90
2022-12-06T21:38:53.973Z,92.80
2022-12-06T21:41:20.943Z,92.80
2022-12-06T21:43:48.339Z,92.80
2022-12-06T21:46:18.262Z,93.00
2022-12-06T21:48:49.280Z,93.00
2022-12-06T21:51:16.747Z,92.90
2022-12-06T21:53:43.552Z,92.90
2022-12-06T21:56:17.887Z,92.90
2022-12-06T21:58:45.661Z,92.90
2022-12-06T22:01:13.607Z,92.90
2022-12-06T22:03:40.828Z,92.90
2022-12-06T22:06:10.515Z,92.90
2022-12-06T22:08:39.257Z,92.90
2022-12-06T22:11:11.238Z,93.00
2022-12-06T22:13:38.099Z,93.00
2022-12-06T22:16:07.625Z,92.90
2022-12-06T22:18:41.060Z,92.90
2022-12-06T22:21:19.457Z,93.00
2022-12-06T22:23:47.442Z,92.90
2022-12-06T22:26:17.367Z,92.90
2022-12-06T22:28:44.346Z,92.90
2022-12-06T22:31:26.350Z,92.90
2022-12-06T22:33:53.727Z,92.90
2022-12-06T22:36:22.279Z,92.90
2022-12-06T22:38:50.940Z,92.90
2022-12-06T22:41:18.568Z,92.90
2022-12-06T22:43:45.777Z,92.90
2022-12-06T22:46:15.420Z,92.90
2022-12-06T22:48:43.037Z,93.00
2022-12-06T22:51:24.948Z,93.00
2022-12-06T22:53:54.710Z,92.90
2022-12-06T22:56:22.096Z,92.90
2022-12-06T22:58:48.868Z,93.00
2022-12-06T23:01:18.450Z,92.90
2022-12-06T23:03:46.812Z,92.90
2022-12-06T23:06:15.585Z,93.00
2022-12-06T23:08:43.020Z,93.00
2022-12-06T23:11:15.660Z,92.90
2022-12-06T23:13:43.221Z,92.90
2022-12-06T23:16:18.574Z,92.90
2022-12-06T23:18:46.425Z,92.90
2022-12-06T23:21:13.099Z,93.00
2022-12-06T23:23:42.511Z,92.90
2022-12-06T23:26:13.178Z,93.00
2022-12-06T23:28:40.573Z,93.00
2022-12-06T23:31:13.087Z,93.00
2022-12-06T23:33:40.295Z,93.00
2022-12-06T23:36:13.687Z,93.00
2022-12-06T23:38:41.134Z,93.00
2022-12-06T23:41:13.714Z,93.00
2022-12-06T23:43:41.193Z,93.00
2022-12-06T23:46:11.268Z,93.00
2022-12-06T23:48:38.329Z,93.00
2022-12-06T23:51:08.018Z,93.00
2022-12-06T23:53:36.896Z,93.00
2022-12-06T23:56:11.779Z,93.00
2022-12-06T23:58:39.695Z,93.00
